Time;durP1;ratioP1;P1;durP2;ratioP2;P2;SDS_P1;SDS_P2;PMS_P1;PMS_P2;Temp;Humidity;BMP_temperature;BMP_pressure;BME280_temperature;BME280_humidity;BME280_pressure;Samples;Min_cycle;Max_cycle;Signal;HPM_P1;HPM_P2
2023/03/12 00:07:53;;;;;;;52.47;24.58;;;3.10;99.90;;;;;;20909540;28;20052;-56
2023/03/12 00:17:54;;;;;;;41.08;22.08;;;3.10;99.90;;;;;;20910544;28;20037;-56
2023/03/12 00:27:56;;;;;;;43.17;23.35;;;2.90;99.90;;;;;;20907498;28;20033;-50
2023/03/12 00:37:57;;;;;;;51.30;27.13;;;2.70;99.90;;;;;;20906211;28;20032;-56
2023/03/12 00:47:59;;;;;;;49.42;25.77;;;2.70;99.90;;;;;;20905767;28;20479;-50
2023/03/12 00:58:01;;;;;;;44.00;23.50;;;2.90;99.90;;;;;;20905966;28;20048;-56
2023/03/12 01:08:04;;;;;;;37.35;21.90;;;3.30;99.90;;;;;;20903750;28;20572;-56
2023/03/12 01:18:05;;;;;;;43.78;22.55;;;3.30;99.90;;;;;;20904720;28;20394;-55
2023/03/12 01:28:07;;;;;;;37.50;22.17;;;3.40;99.90;;;;;;20903615;28;20094;-56
2023/03/12 01:38:15;;;;;;;41.83;23.23;;;3.30;99.90;;;;;;20903314;28;20040;-56
2023/03/12 01:48:18;;;;;;;40.42;22.45;;;3.30;99.90;;;;;;20900647;28;20037;-55
2023/03/12 01:58:21;;;;;;;41.03;23.08;;;3.50;99.90;;;;;;20901219;28;20033;-56
2023/03/12 02:08:23;;;;;;;37.60;19.70;;;3.70;99.90;;;;;;20900785;28;20041;-50
2023/03/12 02:18:26;;;;;;;41.47;22.42;;;3.80;99.90;;;;;;20901408;28;20054;-56
2023/03/12 02:28:29;;;;;;;36.03;18.65;;;3.90;99.90;;;;;;20900823;28;20033;-50
2023/03/12 02:38:38;;;;;;;37.88;18.95;;;3.90;99.90;;;;;;20900498;28;20032;-51
2023/03/12 02:48:39;;;;;;;35.40;18.40;;;4.00;99.90;;;;;;20903146;28;20369;-53
2023/03/12 02:58:41;;;;;;;32.38;17.48;;;4.00;99.90;;;;;;20913186;28;20416;-48
2023/03/12 03:08:43;;;;;;;32.97;18.30;;;4.00;99.90;;;;;;20914031;28;20041;-50
2023/03/12 03:18:45;;;;;;;28.23;16.27;;;4.00;99.90;;;;;;20913858;28;20032;-50
2023/03/12 03:28:47;;;;;;;35.13;19.13;;;3.80;99.90;;;;;;20914160;28;20029;-48
2023/03/12 03:38:49;;;;;;;36.47;18.92;;;3.60;99.90;;;;;;20913445;28;20062;-51
2023/03/12 03:48:52;;;;;;;34.40;20.08;;;3.50;99.90;;;;;;20911520;28;20075;-48
2023/03/12 03:58:57;;;;;;;32.67;16.98;;;3.40;99.90;;;;;;20910277;28;20056;-56
2023/03/12 04:08:59;;;;;;;36.47;18.20;;;3.60;99.90;;;;;;20909838;28;20056;-46
2023/03/12 04:19:02;;;;;;;33.08;17.17;;;3.90;99.90;;;;;;20909256;28;20359;-50
2023/03/12 04:29:05;;;;;;;30.45;13.93;;;4.10;99.90;;;;;;20908043;28;20029;-50
2023/03/12 04:39:07;;;;;;;21.90;12.85;;;4.20;99.90;;;;;;20907814;28;20041;-51
2023/03/12 04:49:08;;;;;;;33.42;14.57;;;4.10;99.90;;;;;;20906960;28;20033;-55
2023/03/12 04:59:12;;;;;;;29.25;14.07;;;4.00;99.90;;;;;;20905513;28;20036;-57
2023/03/12 05:09:15;;;;;;;33.63;14.35;;;3.90;99.90;;;;;;20905019;28;20059;-51
2023/03/12 05:19:17;;;;;;;18.85;9.00;;;3.80;99.90;;;;;;20904181;28;20036;-56
2023/03/12 05:29:19;;;;;;;19.65;10.52;;;3.90;99.90;;;;;;20903460;28;20041;-56
2023/03/12 05:39:20;;;;;;;18.67;8.68;;;4.00;99.90;;;;;;20904407;28;20037;-49
2023/03/12 05:49:23;;;;;;;12.27;6.88;;;3.90;99.90;;;;;;20902945;28;20086;-48
2023/03/12 05:59:24;;;;;;;7.57;3.60;;;3.70;99.90;;;;;;20902085;28;20040;-51
2023/03/12 06:09:27;;;;;;;6.25;3.35;;;3.40;99.90;;;;;;20901605;28;20110;-50
2023/03/12 06:19:30;;;;;;;5.07;2.78;;;2.90;99.90;;;;;;20901505;28;20037;-52
2023/03/12 06:29:31;;;;;;;5.82;2.58;;;2.60;99.90;;;;;;20907138;28;20032;-50
2023/03/12 06:39:33;;;;;;;3.53;2.25;;;2.40;99.90;;;;;;20916789;28;20059;-49
2023/03/12 06:49:36;;;;;;;3.50;2.10;;;2.30;99.90;;;;;;20917613;28;20048;-49
2023/03/12 06:59:37;;;;;;;2.58;1.60;;;2.20;99.90;;;;;;20916511;28;20040;-50
2023/03/12 07:09:39;;;;;;;3.97;1.85;;;2.30;99.90;;;;;;20915569;28;20045;-48
2023/03/12 07:19:40;;;;;;;4.00;1.88;;;2.70;99.90;;;;;;20916300;28;20521;-50
2023/03/12 07:29:43;;;;;;;2.85;1.50;;;3.30;99.90;;;;;;20914069;28;20386;-50
2023/03/12 07:39:46;;;;;;;4.00;1.33;;;4.10;99.90;;;;;;20913366;28;20037;-51
2023/03/12 07:49:48;;;;;;;5.68;1.50;;;4.80;99.90;;;;;;20912990;28;20033;-57
2023/03/12 07:59:50;;;;;;;5.38;1.50;;;5.50;99.90;;;;;;20911790;28;20497;-57
2023/03/12 08:09:51;;;;;;;2.88;1.60;;;6.40;99.90;;;;;;20910831;28;20098;-57
2023/03/12 08:19:53;;;;;;;5.38;1.45;;;7.10;99.90;;;;;;20910558;28;20040;-57
2023/03/12 08:29:55;;;;;;;3.15;1.42;;;8.00;99.90;;;;;;20888015;28;20029;-57
2023/03/12 08:39:56;;;;;;;4.05;1.50;;;8.60;99.90;;;;;;20864878;28;20383;-56
2023/03/12 08:49:58;;;;;;;4.70;2.00;;;8.90;99.90;;;;;;20907524;28;20044;-52
2023/03/12 09:00:00;;;;;;;4.97;2.00;;;9.10;99.90;;;;;;20906683;28;20037;-54
2023/03/12 09:10:03;;;;;;;5.00;2.00;;;9.40;99.90;;;;;;20906179;28;20047;-48
2023/03/12 09:20:07;;;;;;;4.45;2.08;;;9.00;99.90;;;;;;20904153;28;20037;-53
2023/03/12 09:30:12;;;;;;;4.53;2.45;;;8.60;99.90;;;;;;20904694;28;20044;-52
2023/03/12 09:40:18;;;;;;;6.05;2.45;;;9.50;99.90;;;;;;20904109;28;20056;-54
2023/03/12 09:50:42;;;;;;;4.47;2.45;;;9.70;99.90;;;;;;20904994;28;20378;-52
2023/03/12 10:00:44;;;;;;;6.05;2.80;;;10.70;99.90;;;;;;20903530;28;20122;-52
2023/03/12 10:10:59;;;;;;;4.45;2.67;;;11.40;99.90;;;;;;20920096;28;20283;-50
2023/03/12 10:21:39;;;;;;;4.85;2.92;;;12.10;99.90;;;;;;20918949;28;20029;-53
2023/03/12 10:31:56;;;;;;;4.97;2.92;;;12.00;99.90;;;;;;20911703;28;20053;-51
2023/03/12 10:42:00;;;;;;;3.58;2.97;;;12.10;99.90;;;;;;20916160;28;20033;-49
2023/03/12 10:52:04;;;;;;;4.72;3.08;;;11.80;99.90;;;;;;20917211;28;20535;-50
2023/03/12 11:02:40;;;;;;;4.28;3.10;;;11.80;99.30;;;;;;20916908;28;20059;-50
2023/03/12 11:12:54;;;;;;;6.28;3.28;;;11.70;99.90;;;;;;20915224;28;20057;-52
2023/03/12 11:22:56;;;;;;;5.03;3.40;;;12.20;99.90;;;;;;20914860;28;20037;-52
2023/03/12 11:32:57;;;;;;;6.43;3.78;;;12.30;99.90;;;;;;20914483;28;20564;-53
2023/03/12 11:43:08;;;;;;;6.55;3.47;;;12.40;99.90;;;;;;20913252;28;20033;-51
2023/03/12 11:53:28;;;;;;;5.68;3.33;;;12.00;99.90;;;;;;20912564;28;20037;-50
2023/03/12 12:03:55;;;;;;;3.97;3.27;;;12.20;99.90;;;;;;20912141;28;20037;-52
2023/03/12 12:14:19;;;;;;;5.55;3.63;;;12.10;98.90;;;;;;20910970;28;20287;-53
2023/03/12 12:24:55;;;;;;;7.57;3.50;;;12.30;98.40;;;;;;20908868;28;20033;-53
2023/03/12 12:35:35;;;;;;;3.70;3.17;;;12.00;99.60;;;;;;20909670;28;20033;-49
2023/03/12 12:45:39;;;;;;;;;;;12.10;98.10;;;;;;20909231;28;20036;-51
2023/03/12 12:56:06;;;;;;;7.72;3.47;;;12.00;98.50;;;;;;20907546;28;20326;-49
2023/03/12 13:06:08;;;;;;;4.20;2.97;;;12.20;98.50;;;;;;20906112;28;20394;-49
2023/03/12 13:16:41;;;;;;;4.10;3.05;;;12.00;98.50;;;;;;20906546;28;20095;-52
2023/03/12 13:26:50;;;;;;;4.13;3.10;;;12.20;97.80;;;;;;20897436;28;20061;-49
2023/03/12 13:37:00;;;;;;;8.25;3.33;;;12.20;98.00;;;;;;20903962;28;20045;-47
2023/03/12 13:47:31;;;;;;;6.03;3.38;;;11.90;98.30;;;;;;20904206;28;20390;-49
2023/03/12 13:57:39;;;;;;;7.07;3.40;;;11.60;98.70;;;;;;20903433;28;20174;-51
2023/03/12 14:07:55;;;;;;;6.80;3.80;;;11.00;98.90;;;;;;20902087;28;20086;-50
2023/03/12 14:18:32;;;;;;;6.47;3.33;;;10.40;99.50;;;;;;20902468;28;20098;-49
2023/03/12 14:28:40;;;;;;;5.40;3.65;;;10.00;99.30;;;;;;20727795;28;20180;-48
2023/03/12 14:38:44;;;;;;;9.02;3.83;;;9.70;99.90;;;;;;20728454;28;20053;-48
2023/03/12 14:48:50;;;;;;;6.53;3.72;;;9.30;99.90;;;;;;20731244;28;20038;-50
2023/03/12 14:58:52;;;;;;;5.97;4.05;;;9.10;99.90;;;;;;20804608;28;20440;-46
2023/03/12 15:08:55;;;;;;;5.82;4.00;;;8.70;99.90;;;;;;20915618;28;20041;-47
2023/03/12 15:18:57;;;;;;;6.80;4.13;;;8.60;99.90;;;;;;20915293;28;20033;-53
2023/03/12 15:29:00;;;;;;;4.80;3.92;;;8.40;99.90;;;;;;20915566;28;20041;-46
2023/03/12 15:39:31;;;;;;;7.28;4.45;;;8.00;99.90;;;;;;20913760;28;20036;-46
2023/03/12 15:49:36;;;;;;;6.35;4.30;;;7.60;99.90;;;;;;20912105;28;20497;-53
2023/03/12 15:59:38;;;;;;;7.85;4.50;;;7.20;99.90;;;;;;20910875;28;20087;-50
2023/03/12 16:09:41;;;;;;;7.78;4.90;;;6.60;99.90;;;;;;20911333;28;20087;-48
2023/03/12 16:19:42;;;;;;;8.73;4.80;;;5.90;99.90;;;;;;20910574;28;20052;-47
2023/03/12 16:29:44;;;;;;;9.30;4.57;;;5.30;99.90;;;;;;20909561;28;20474;-50
2023/03/12 16:39:47;;;;;;;8.18;4.85;;;4.90;99.90;;;;;;20908450;28;20029;-55
2023/03/12 16:49:49;;;;;;;11.02;5.32;;;4.60;99.90;;;;;;20906817;28;20040;-49
2023/03/12 16:59:51;;;;;;;12.65;5.10;;;4.30;99.90;;;;;;20906328;28;20037;-47
2023/03/12 17:09:52;;;;;;;13.23;5.20;;;3.90;99.90;;;;;;20905181;28;20556;-55
2023/03/12 17:19:54;;;;;;;9.55;5.32;;;3.50;99.90;;;;;;20905098;28;20033;-54
2023/03/12 17:29:56;;;;;;;9.65;5.93;;;3.00;99.90;;;;;;20904920;28;20047;-50
2023/03/12 17:40:00;;;;;;;11.85;5.88;;;2.60;99.90;;;;;;20905357;28;20473;-49
2023/03/12 17:50:03;;;;;;;10.70;6.20;;;2.30;99.90;;;;;;20904433;28;20033;-54
2023/03/12 18:00:11;;;;;;;10.60;5.60;;;2.30;99.90;;;;;;20903160;28;20053;-54
2023/03/12 18:10:16;;;;;;;11.07;6.80;;;2.10;99.90;;;;;;20902941;28;20099;-52
2023/03/12 18:20:18;;;;;;;14.35;6.75;;;2.00;99.90;;;;;;20904115;28;20041;-55
2023/03/12 18:30:20;;;;;;;15.63;6.82;;;1.90;99.90;;;;;;20916850;28;20044;-50
2023/03/12 18:40:22;;;;;;;13.73;7.45;;;1.70;99.90;;;;;;20919187;28;20033;-55
2023/03/12 18:50:24;;;;;;;13.23;7.88;;;1.50;99.90;;;;;;20917151;28;20045;-45
2023/03/12 19:00:26;;;;;;;14.20;7.20;;;1.40;99.90;;;;;;20915069;28;20037;-49
2023/03/12 19:10:28;;;;;;;16.52;7.63;;;1.40;99.90;;;;;;20915804;28;20049;-54
2023/03/12 19:20:30;;;;;;;14.68;6.95;;;1.50;99.90;;;;;;20916236;28;20071;-48
2023/03/12 19:30:32;;;;;;;12.88;7.55;;;1.60;99.90;;;;;;20914669;28;20079;-52
2023/03/12 19:40:34;;;;;;;11.98;7.18;;;1.60;99.90;;;;;;20913260;28;20043;-53
2023/03/12 19:50:36;;;;;;;11.18;7.10;;;1.50;99.90;;;;;;20928263;28;20436;-53
2023/03/12 20:00:39;;;;;;;14.32;7.82;;;1.40;99.90;;;;;;20911907;28;20044;-53
2023/03/12 20:10:42;;;;;;;13.20;8.13;;;1.40;99.90;;;;;;20910785;28;20443;-53
2023/03/12 20:20:45;;;;;;;12.43;7.65;;;1.30;99.90;;;;;;20911470;28;20053;-51
2023/03/12 20:30:48;;;;;;;14.38;7.15;;;1.30;99.90;;;;;;20909790;28;20037;-51
2023/03/12 20:40:49;;;;;;;13.10;7.72;;;1.20;99.90;;;;;;20908758;28;20032;-54
2023/03/12 20:50:51;;;;;;;18.45;8.30;;;1.20;99.90;;;;;;20907248;28;20055;-51
2023/03/12 21:00:53;;;;;;;15.30;9.20;;;1.20;99.90;;;;;;20907380;28;20029;-51
2023/03/12 21:10:55;;;;;;;11.85;7.40;;;1.10;99.90;;;;;;20906275;28;20049;-50
2023/03/12 21:21:05;;;;;;;15.05;7.55;;;0.90;99.90;;;;;;20905412;28;20109;-54
2023/03/12 21:31:09;;;;;;;14.27;8.40;;;1.00;99.90;;;;;;20904071;28;20055;-48
2023/03/12 21:41:14;;;;;;;15.32;7.90;;;0.90;99.90;;;;;;20904289;28;20037;-53
2023/03/12 21:51:16;;;;;;;14.88;8.05;;;1.00;99.90;;;;;;20903739;28;20029;-51
2023/03/12 22:01:18;;;;;;;16.13;8.90;;;1.00;99.90;;;;;;20902334;28;20429;-52
2023/03/12 22:11:20;;;;;;;15.93;9.38;;;1.00;99.90;;;;;;20902692;28;20111;-53
2023/03/12 22:21:23;;;;;;;16.00;9.32;;;1.00;99.90;;;;;;20903375;28;20056;-53
2023/03/12 22:31:26;;;;;;;13.18;8.40;;;0.90;99.90;;;;;;20902547;28;20086;-50
2023/03/12 22:41:29;;;;;;;19.30;10.05;;;0.70;99.90;;;;;;20900523;28;20094;-53
2023/03/12 22:51:32;;;;;;;16.75;9.18;;;0.60;99.90;;;;;;20901120;28;20538;-54
2023/03/12 23:01:33;;;;;;;15.98;8.55;;;0.60;99.90;;;;;;20901116;28;20616;-51
2023/03/12 23:11:35;;;;;;;14.55;8.07;;;1.00;99.90;;;;;;20906213;28;20044;-50
2023/03/12 23:21:37;;;;;;;13.82;8.48;;;1.10;99.90;;;;;;20916193;28;20053;-50
2023/03/12 23:31:38;;;;;;;16.95;9.23;;;1.00;99.90;;;;;;20914878;28;20544;-47
2023/03/12 23:41:40;;;;;;;16.85;8.63;;;1.10;99.90;;;;;;20913701;28;20363;-52
2023/03/12 23:51:42;;;;;;;18.20;8.60;;;1.30;99.90;;;;;;20913166;28;20037;-53
